Time;durP1;ratioP1;P1;durP2;ratioP2;P2;SDS_P1;SDS_P2;PMS_P1;PMS_P2;Temp;Humidity;BMP_temperature;BMP_pressure;BME280_temperature;BME280_humidity;BME280_pressure;Samples;Min_cycle;Max_cycle;Signal;HPM_P1;HPM_P2
2022/04/13 07:15:49;;;;;;;21.42;12.80;;;14.00;92.30;;;;;;5064403;28;20400;-53
2022/04/13 07:18:15;;;;;;;19.20;12.13;;;14.00;91.70;;;;;;5065229;28;20059;-49
2022/04/13 07:20:41;;;;;;;26.90;14.63;;;14.00;91.00;;;;;;5060795;28;20053;-42
2022/04/13 07:23:07;;;;;;;21.15;12.90;;;14.00;90.90;;;;;;5065499;28;20071;-53
2022/04/13 07:25:32;;;;;;;22.88;14.35;;;13.70;90.90;;;;;;5064228;28;20029;-50
2022/04/13 07:27:58;;;;;;;21.30;14.35;;;13.70;91.90;;;;;;5066798;28;20056;-45
2022/04/13 07:30:24;;;;;;;20.98;13.25;;;13.50;91.30;;;;;;5055901;28;20083;-41
2022/04/13 07:32:52;;;;;;;20.95;13.65;;;13.40;92.00;;;;;;5050461;28;20028;-45
2022/04/13 07:35:18;;;;;;;21.33;12.82;;;13.40;92.40;;;;;;5061851;28;20099;-42
2022/04/13 07:37:43;;;;;;;20.48;12.65;;;13.50;92.20;;;;;;5062514;28;20028;-46
2022/04/13 07:40:13;;;;;;;21.52;12.40;;;13.40;92.20;;;;;;5056863;28;20029;-49
2022/04/13 07:42:39;;;;;;;;;;;13.30;92.00;;;;;;5052754;28;20052;-48
2022/04/13 07:45:05;;;;;;;22.80;13.20;;;13.20;92.20;;;;;;5062959;28;19905;-46
2022/04/13 07:47:31;;;;;;;20.10;13.10;;;13.20;92.50;;;;;;5059955;28;20016;-51
2022/04/13 07:49:58;;;;;;;23.73;13.48;;;13.40;92.20;;;;;;5065044;28;20416;-44
2022/04/13 07:52:23;;;;;;;18.90;11.90;;;13.50;92.90;;;;;;5050316;28;20017;-50
2022/04/13 07:54:49;;;;;;;22.23;12.73;;;13.70;92.10;;;;;;5053463;28;20091;-49
2022/04/13 07:57:15;;;;;;;18.08;11.85;;;13.80;91.90;;;;;;5047138;28;20070;-47
2022/04/13 07:59:41;;;;;;;18.23;11.95;;;14.00;91.50;;;;;;5047266;28;20048;-45
2022/04/13 08:02:08;;;;;;;21.08;12.82;;;14.10;91.10;;;;;;5047544;28;20021;-44
2022/04/13 08:04:34;;;;;;;20.23;12.20;;;14.40;90.90;;;;;;5047489;28;20033;-47
2022/04/13 08:07:00;;;;;;;21.88;12.55;;;14.40;89.70;;;;;;5046315;28;20120;-44
2022/04/13 08:09:26;;;;;;;18.17;11.32;;;14.70;91.00;;;;;;5047334;28;20113;-49
2022/04/13 08:11:52;;;;;;;20.55;11.25;;;15.00;88.60;;;;;;5047040;28;20100;-43
2022/04/13 08:14:20;;;;;;;18.83;12.15;;;15.10;88.30;;;;;;5046020;28;20131;-49
2022/04/13 08:16:46;;;;;;;16.80;11.70;;;15.20;87.50;;;;;;5055397;28;20078;-54
2022/04/13 08:19:11;;;;;;;17.92;10.60;;;15.20;86.30;;;;;;5066757;28;20032;-47
2022/04/13 08:21:40;;;;;;;15.18;9.95;;;15.30;87.20;;;;;;5056554;28;20438;-49
2022/04/13 08:24:06;;;;;;;17.50;10.17;;;15.30;87.10;;;;;;5066085;28;20396;-42
2022/04/13 08:26:33;;;;;;;17.77;10.60;;;15.50;86.60;;;;;;5044006;28;20029;-47
2022/04/13 08:28:58;;;;;;;14.52;10.38;;;15.70;86.70;;;;;;5034234;28;20029;-50
2022/04/13 08:31:24;;;;;;;19.27;10.57;;;15.90;84.90;;;;;;5033425;28;20350;-53
2022/04/13 08:33:50;;;;;;;16.75;10.38;;;16.00;82.90;;;;;;5039433;28;20129;-51
2022/04/13 08:36:16;;;;;;;17.58;10.48;;;16.00;83.70;;;;;;5040313;28;20364;-55
2022/04/13 08:38:42;;;;;;;16.00;10.05;;;16.10;83.50;;;;;;5036401;28;20499;-46
2022/04/13 08:41:19;;;;;;;16.88;10.45;;;16.10;82.40;;;;;;5042783;28;20109;-41
2022/04/13 08:43:51;;;;;;;13.95;9.43;;;16.10;82.70;;;;;;5043561;28;20037;-42
2022/04/13 08:46:27;;;;;;;15.25;9.38;;;15.80;84.60;;;;;;5042586;28;20025;-55
2022/04/13 08:48:56;;;;;;;15.45;9.82;;;15.70;85.00;;;;;;5034478;28;20445;-45
2022/04/13 08:51:24;;;;;;;14.93;10.23;;;15.70;86.70;;;;;;5032546;28;20036;-43
2022/04/13 08:54:00;;;;;;;16.63;10.63;;;15.80;85.30;;;;;;5039367;28;20034;-44
2022/04/13 08:56:28;;;;;;;15.73;9.85;;;15.70;86.30;;;;;;5043156;28;20029;-47
2022/04/13 08:59:03;;;;;;;20.17;9.15;;;15.60;85.90;;;;;;5052686;28;20029;-46
2022/04/13 09:02:05;;;;;;;15.75;9.73;;;15.80;86.60;;;;;;5051712;28;20033;-45
2022/04/13 09:04:36;;;;;;;16.25;9.93;;;16.00;85.40;;;;;;5034594;28;20396;-46
2022/04/13 09:07:04;;;;;;;14.75;9.07;;;16.30;86.10;;;;;;5042671;28;20029;-53
2022/04/13 09:09:35;;;;;;;16.38;10.40;;;16.40;82.70;;;;;;5046609;28;20025;-51
2022/04/13 09:12:03;;;;;;;13.80;8.65;;;16.30;83.70;;;;;;5051117;28;20036;-47
2022/04/13 09:14:29;;;;;;;14.48;9.15;;;16.30;84.40;;;;;;5051733;28;20041;-44
2022/04/13 09:16:56;;;;;;;13.52;8.45;;;16.40;83.90;;;;;;5052578;28;20029;-50
2022/04/13 09:19:25;;;;;;;14.35;8.00;;;16.60;84.20;;;;;;5052281;28;20052;-48
2022/04/13 09:21:52;;;;;;;14.13;7.50;;;16.80;83.50;;;;;;5047789;28;20036;-46
2022/04/13 09:24:19;;;;;;;15.25;7.40;;;16.90;81.50;;;;;;5047770;28;20029;-48
2022/04/13 09:26:46;;;;;;;15.23;7.32;;;17.00;81.70;;;;;;5043254;28;20477;-49
2022/04/13 09:29:12;;;;;;;13.68;6.68;;;17.00;82.60;;;;;;5045491;28;20361;-45
2022/04/13 09:31:38;;;;;;;8.85;5.47;;;17.00;81.30;;;;;;5049567;28;20037;-43
2022/04/13 09:34:03;;;;;;;11.45;5.75;;;17.10;79.10;;;;;;5032587;28;20408;-47
2022/04/13 09:36:29;;;;;;;9.20;5.53;;;17.20;78.60;;;;;;5031673;28;20030;-45
2022/04/13 09:38:56;;;;;;;12.65;5.78;;;17.50;78.50;;;;;;5043350;28;20381;-46
2022/04/13 09:41:36;;;;;;;10.10;6.40;;;17.80;76.70;;;;;;5050709;28;20096;-44
2022/04/13 09:44:10;;;;;;;14.23;6.82;;;18.40;78.30;;;;;;5028971;28;20029;-48
2022/04/13 09:46:36;;;;;;;11.60;6.95;;;18.40;74.50;;;;;;5026144;28;20030;-45
2022/04/13 09:49:10;;;;;;;11.77;6.13;;;18.70;75.80;;;;;;5038929;28;20264;-50
2022/04/13 09:51:37;;;;;;;12.00;6.15;;;18.80;73.00;;;;;;5063783;28;20116;-45
2022/04/13 09:54:11;;;;;;;8.75;5.63;;;18.60;73.10;;;;;;5031408;28;20287;-47
2022/04/13 09:56:38;;;;;;;13.35;6.20;;;18.30;72.00;;;;;;5032974;28;20847;-56
2022/04/13 09:59:07;;;;;;;13.38;6.10;;;18.10;73.80;;;;;;5037471;28;20103;-47
2022/04/13 10:01:34;;;;;;;13.93;6.30;;;17.90;75.60;;;;;;5036188;28;20025;-45
2022/04/13 10:04:00;;;;;;;13.25;6.45;;;18.10;76.60;;;;;;5031439;28;20032;-48
2022/04/13 10:06:28;;;;;;;11.18;6.03;;;18.20;73.40;;;;;;5031257;28;20469;-53
2022/04/13 10:09:05;;;;;;;14.38;6.40;;;18.30;72.80;;;;;;5031552;28;20480;-44
2022/04/13 10:11:31;;;;;;;9.70;5.78;;;18.20;72.90;;;;;;5030756;28;20457;-52
2022/04/13 10:14:00;;;;;;;12.23;5.28;;;18.20;75.20;;;;;;5030846;28;20049;-46
2022/04/13 10:16:32;;;;;;;9.45;4.35;;;18.20;72.70;;;;;;5046217;28;20041;-53
2022/04/13 10:19:03;;;;;;;9.65;4.22;;;17.90;72.80;;;;;;5050345;28;20048;-49
2022/04/13 10:21:36;;;;;;;9.93;4.60;;;17.90;74.60;;;;;;5050091;28;20280;-47
2022/04/13 10:24:03;;;;;;;10.68;4.50;;;17.90;72.40;;;;;;5029898;28;20113;-45
2022/04/13 10:26:29;;;;;;;9.45;4.07;;;17.90;75.00;;;;;;5030737;28;20029;-47
2022/04/13 10:28:55;;;;;;;7.05;3.08;;;18.00;73.00;;;;;;5037124;28;20037;-50
2022/04/13 10:31:20;;;;;;;4.65;2.40;;;18.20;68.40;;;;;;5033308;28;20026;-55
2022/04/13 10:33:48;;;;;;;5.63;2.45;;;18.50;71.00;;;;;;5031985;28;20419;-45
2022/04/13 10:36:18;;;;;;;6.40;2.22;;;18.90;69.90;;;;;;5032778;28;20484;-46
2022/04/13 10:38:44;;;;;;;6.10;2.47;;;19.60;65.00;;;;;;5049606;28;20035;-47
2022/04/13 10:41:15;;;;;;;4.85;1.90;;;20.20;61.40;;;;;;5031398;28;20392;-45
2022/04/13 10:43:47;;;;;;;5.43;1.65;;;20.60;62.40;;;;;;5033021;28;20059;-50
2022/04/13 10:46:14;;;;;;;4.95;1.77;;;20.70;57.70;;;;;;5044246;28;20061;-46
2022/04/13 10:48:45;;;;;;;3.55;1.67;;;21.00;59.70;;;;;;5044809;28;20120;-43
2022/04/13 10:51:16;;;;;;;5.32;1.63;;;21.50;59.60;;;;;;5050466;28;20033;-42
2022/04/13 10:53:57;;;;;;;5.60;1.27;;;22.50;54.40;;;;;;5047997;28;20112;-42
2022/04/13 10:56:30;;;;;;;2.55;0.57;;;24.10;54.30;;;;;;5048022;28;20017;-45
2022/04/13 10:59:28;;;;;;;4.28;1.10;;;26.10;44.80;;;;;;5040613;28;20091;-46
2022/04/13 11:01:59;;;;;;;2.55;0.80;;;27.30;42.20;;;;;;5034873;28;20480;-44
2022/04/13 11:04:28;;;;;;;6.35;1.10;;;28.50;41.10;;;;;;5047564;28;20033;-42
2022/04/13 11:06:55;;;;;;;3.42;1.30;;;28.80;35.70;;;;;;5050128;28;20045;-44
2022/04/13 11:09:26;;;;;;;5.93;1.20;;;28.80;36.40;;;;;;5048711;28;20112;-47
2022/04/13 11:11:54;;;;;;;3.28;1.00;;;29.20;35.60;;;;;;5050273;28;20429;-50
2022/04/13 11:14:21;;;;;;;2.27;0.77;;;28.80;36.00;;;;;;5036028;28;20042;-45
2022/04/13 11:16:47;;;;;;;2.10;0.82;;;28.00;36.90;;;;;;5030225;28;20267;-44
2022/04/13 11:19:13;;;;;;;5.47;1.00;;;26.60;39.00;;;;;;5030199;28;20388;-44
2022/04/13 11:21:54;;;;;;;4.53;1.20;;;26.20;44.00;;;;;;5030584;28;20022;-46
2022/04/13 11:24:45;;;;;;;4.80;1.20;;;25.30;42.80;;;;;;5043560;28;20361;-49
2022/04/13 11:27:11;;;;;;;2.95;0.88;;;24.50;44.50;;;;;;5048401;28;20028;-46
2022/04/13 11:29:39;;;;;;;3.67;1.10;;;23.90;46.80;;;;;;5047902;28;20536;-45
2022/04/13 11:32:15;;;;;;;2.85;1.27;;;23.60;45.80;;;;;;5049051;28;20064;-50
2022/04/13 11:34:44;;;;;;;3.08;1.10;;;23.10;47.70;;;;;;5034452;28;20033;-47
2022/04/13 11:37:36;;;;;;;6.63;1.30;;;22.90;50.90;;;;;;5029992;28;20087;-46
2022/04/13 11:40:06;;;;;;;3.22;1.20;;;23.30;47.80;;;;;;5024018;28;20029;-44
2022/04/13 11:42:35;;;;;;;3.40;1.20;;;23.60;48.50;;;;;;5036028;28;20378;-48
2022/04/13 11:45:37;;;;;;;3.85;1.45;;;25.10;45.90;;;;;;5034777;28;20030;-53
2022/04/13 11:48:03;;;;;;;4.72;1.40;;;25.40;44.10;;;;;;5037102;28;20554;-46
2022/04/13 11:50:36;;;;;;;5.32;1.35;;;26.40;42.50;;;;;;5027683;28;21627;-48
2022/04/13 11:53:14;;;;;;;5.10;2.13;;;27.00;41.40;;;;;;5029254;28;20028;-47
2022/04/13 11:55:39;;;;;;;6.70;1.70;;;27.30;40.00;;;;;;5036657;28;20033;-44
2022/04/13 11:58:08;;;;;;;5.82;1.45;;;27.20;39.60;;;;;;5034313;28;20514;-48
2022/04/13 12:00:52;;;;;;;7.07;2.00;;;27.00;41.30;;;;;;5047211;28;20443;-45
2022/04/13 12:03:37;;;;;;;7.32;3.50;;;27.20;41.00;;;;;;5037493;28;20109;-44
2022/04/13 12:06:09;;;;;;;26.13;19.25;;;28.10;37.60;;;;;;5023936;28;20048;-42
2022/04/13 12:08:39;;;;;;;8.43;4.13;;;27.90;37.20;;;;;;5033511;28;20155;-43
2022/04/13 12:11:16;;;;;;;6.35;1.63;;;27.70;37.80;;;;;;5033544;28;20022;-43
2022/04/13 12:13:59;;;;;;;28.52;18.95;;;27.50;38.60;;;;;;5033129;28;20045;-42
2022/04/13 12:16:28;;;;;;;38.67;30.20;;;28.00;36.90;;;;;;5033512;28;20021;-46
2022/04/13 12:19:03;;;;;;;4.00;1.77;;;28.20;37.80;;;;;;5033633;28;20026;-49
2022/04/13 12:21:30;;;;;;;5.30;2.53;;;27.60;36.70;;;;;;5033479;28;20060;-52
2022/04/13 12:23:56;;;;;;;4.22;1.70;;;26.70;38.90;;;;;;5037777;28;20091;-58
2022/04/13 12:26:47;;;;;;;10.10;5.88;;;25.90;39.90;;;;;;5044313;28;20037;-49
2022/04/13 12:29:17;;;;;;;6.55;2.88;;;24.90;42.60;;;;;;5042748;28;20477;-53
2022/04/13 12:31:54;;;;;;;6.57;2.65;;;24.30;44.60;;;;;;5037723;28;20063;-48
2022/04/13 12:34:21;;;;;;;5.22;1.52;;;24.00;45.50;;;;;;5048972;28;20108;-43
2022/04/13 12:36:59;;;;;;;16.23;9.18;;;24.50;46.30;;;;;;5044888;28;20558;-46
2022/04/13 12:39:26;;;;;;;2.92;1.23;;;25.60;47.00;;;;;;5043401;28;20029;-48
2022/04/13 12:41:52;;;;;;;2.65;1.08;;;26.30;41.60;;;;;;5043323;28;20025;-46
2022/04/13 12:44:18;;;;;;;4.70;1.38;;;26.90;40.10;;;;;;5051156;28;20064;-49
2022/04/13 12:46:43;;;;;;;6.47;3.42;;;26.80;39.70;;;;;;5037449;28;20038;-49
2022/04/13 12:49:20;;;;;;;24.50;16.30;;;27.20;41.50;;;;;;5033624;28;20029;-43
2022/04/13 12:51:47;;;;;;;15.07;7.68;;;27.40;39.20;;;;;;5033353;28;20029;-44
2022/04/13 12:54:17;;;;;;;23.25;13.20;;;26.50;36.10;;;;;;5032809;28;20060;-47
2022/04/13 12:56:48;;;;;;;20.70;11.32;;;25.10;39.30;;;;;;5033278;28;20017;-45
2022/04/13 12:59:34;;;;;;;33.65;21.00;;;23.50;44.00;;;;;;5035107;28;20065;-43
2022/04/13 13:02:00;;;;;;;8.88;3.75;;;22.40;47.30;;;;;;5034771;28;20045;-43
2022/04/13 13:04:26;;;;;;;25.52;15.90;;;21.70;49.40;;;;;;5035724;28;20625;-42
2022/04/13 13:06:59;;;;;;;8.57;2.80;;;21.80;51.40;;;;;;5049757;28;20068;-48
2022/04/13 13:09:27;;;;;;;17.80;9.75;;;21.90;52.30;;;;;;5035075;28;20112;-49
2022/04/13 13:11:58;;;;;;;34.63;20.83;;;22.20;49.80;;;;;;5023380;28;20540;-48
2022/04/13 13:14:35;;;;;;;8.35;3.90;;;22.40;50.90;;;;;;5047999;28;20055;-45
2022/04/13 13:17:18;;;;;;;37.05;23.58;;;22.80;50.20;;;;;;5012657;28;20033;-46
2022/04/13 13:19:53;;;;;;;4.13;1.55;;;22.60;47.50;;;;;;5023455;28;20218;-50
2022/04/13 13:22:24;;;;;;;3.85;1.50;;;21.90;49.00;;;;;;5036140;28;20022;-45
2022/04/13 13:24:50;;;;;;;3.53;1.95;;;21.40;54.20;;;;;;5029876;28;20037;-45
2022/04/13 13:27:25;;;;;;;14.73;8.98;;;21.40;51.30;;;;;;5037932;28;20595;-52
2022/04/13 13:29:52;;;;;;;36.88;20.80;;;21.10;54.30;;;;;;5042754;28;20094;-49
2022/04/13 13:32:22;;;;;;;3.65;1.38;;;20.90;56.50;;;;;;5041465;28;20040;-45
2022/04/13 13:35:06;;;;;;;4.80;2.35;;;20.70;51.90;;;;;;5051497;28;20021;-52
2022/04/13 13:37:48;;;;;;;8.25;3.42;;;20.20;52.60;;;;;;5031913;28;20029;-49
2022/04/13 13:40:36;;;;;;;6.05;2.10;;;20.00;53.30;;;;;;5032059;28;20365;-44
2022/04/13 13:43:23;;;;;;;5.90;1.60;;;19.60;54.50;;;;;;5032535;28;20018;-46
2022/04/13 13:45:50;;;;;;;5.20;1.75;;;19.40;55.50;;;;;;5050984;28;20463;-50
2022/04/13 13:48:26;;;;;;;9.40;4.97;;;19.30;56.10;;;;;;5037284;28;20017;-47
2022/04/13 13:50:54;;;;;;;4.63;1.05;;;19.40;56.60;;;;;;5043531;28;20120;-48
2022/04/13 13:53:22;;;;;;;7.15;1.95;;;19.50;57.30;;;;;;5040908;28;20108;-44
2022/04/13 13:55:48;;;;;;;5.00;1.30;;;19.50;56.70;;;;;;5046052;28;20025;-48
2022/04/13 13:58:15;;;;;;;17.35;9.82;;;19.70;57.30;;;;;;5036919;28;20029;-49
2022/04/13 14:00:40;;;;;;;13.48;5.82;;;20.00;54.10;;;;;;5037671;28;20465;-43
2022/04/13 14:03:08;;;;;;;4.13;1.45;;;20.10;55.10;;;;;;5030625;28;20064;-43
2022/04/13 14:05:34;;;;;;;37.63;20.75;;;20.20;54.40;;;;;;5033992;28;20040;-45
2022/04/13 14:08:04;;;;;;;6.47;2.28;;;20.10;51.60;;;;;;5031181;28;20365;-48
2022/04/13 14:10:30;;;;;;;85.53;56.70;;;20.00;53.00;;;;;;5031259;28;20098;-47
2022/04/13 14:12:56;;;;;;;28.42;19.10;;;19.80;52.80;;;;;;5038549;28;20075;-44
2022/04/13 14:15:22;;;;;;;11.25;6.07;;;19.40;53.60;;;;;;5041787;28;20043;-49
2022/04/13 14:17:49;;;;;;;5.00;2.20;;;19.50;56.00;;;;;;5031125;28;20038;-49
2022/04/13 14:20:16;;;;;;;20.60;16.88;;;19.50;51.90;;;;;;5032161;28;20028;-45
2022/04/13 14:22:43;;;;;;;11.35;7.32;;;19.50;53.20;;;;;;5037778;28;20443;-46
2022/04/13 14:25:10;;;;;;;21.15;12.93;;;19.50;52.80;;;;;;5038610;28;20029;-47
2022/04/13 14:27:37;;;;;;;17.30;7.90;;;19.50;53.50;;;;;;5034715;28;20052;-47
2022/04/13 14:30:05;;;;;;;5.72;1.92;;;19.50;55.90;;;;;;5037401;28;20032;-52
2022/04/13 14:32:31;;;;;;;3.83;1.27;;;19.50;54.90;;;;;;5018118;28;20022;-47
2022/04/13 14:35:01;;;;;;;6.72;1.52;;;19.50;54.80;;;;;;5040234;28;20037;-53
2022/04/13 14:37:27;;;;;;;14.75;11.60;;;19.40;55.00;;;;;;5029126;28;20104;-52
2022/04/13 14:39:53;;;;;;;6.70;1.98;;;19.60;53.50;;;;;;5030301;28;20440;-43
2022/04/13 14:42:18;;;;;;;3.63;1.52;;;19.10;55.00;;;;;;5030233;28;20053;-45
2022/04/13 14:44:44;;;;;;;3.38;1.38;;;19.10;54.60;;;;;;5034584;28;20091;-44
2022/04/13 14:47:10;;;;;;;2.97;1.42;;;19.20;56.10;;;;;;5030449;28;20040;-53
2022/04/13 14:49:37;;;;;;;2.20;0.98;;;19.30;57.20;;;;;;5029019;28;20112;-48
2022/04/13 14:52:03;;;;;;;5.45;1.30;;;19.30;56.30;;;;;;5018185;28;20021;-44
2022/04/13 14:54:29;;;;;;;5.03;2.20;;;19.50;56.80;;;;;;5038681;28;20024;-44
2022/04/13 14:56:55;;;;;;;5.00;2.05;;;19.70;54.20;;;;;;5045303;28;20047;-46
2022/04/13 14:59:22;;;;;;;7.68;3.10;;;19.60;53.30;;;;;;5044440;28;20541;-43
2022/04/13 15:01:47;;;;;;;8.68;2.20;;;19.70;54.40;;;;;;5038797;28;20034;-47
2022/04/13 15:04:13;;;;;;;7.30;3.55;;;19.60;54.60;;;;;;5020507;28;20400;-48
2022/04/13 15:06:39;;;;;;;11.77;5.60;;;19.50;53.60;;;;;;5028417;28;20033;-46
2022/04/13 15:09:06;;;;;;;10.93;6.25;;;19.50;54.50;;;;;;5033134;28;20048;-46
2022/04/13 15:11:35;;;;;;;2.72;1.27;;;19.50;55.30;;;;;;5043445;28;20033;-51
2022/04/13 15:14:03;;;;;;;;;;;19.50;55.20;;;;;;5027193;28;20102;-40
2022/04/13 15:16:32;;;;;;;6.38;2.15;;;19.40;55.30;;;;;;5030498;28;20316;-47
2022/04/13 15:18:58;;;;;;;4.17;1.10;;;19.50;54.90;;;;;;5029349;28;20033;-43
2022/04/13 15:21:24;;;;;;;1.95;0.70;;;19.40;55.30;;;;;;5030787;28;20025;-43
2022/04/13 15:23:50;;;;;;;3.17;1.10;;;19.00;55.70;;;;;;5031063;28;20029;-51
2022/04/13 15:26:17;;;;;;;3.38;1.15;;;18.80;57.30;;;;;;5030323;28;20048;-46
2022/04/13 15:28:43;;;;;;;5.38;1.50;;;18.90;57.40;;;;;;5028919;28;20072;-43
2022/04/13 15:31:09;;;;;;;5.13;0.95;;;18.70;56.10;;;;;;5029054;28;20033;-49
2022/04/13 15:33:35;;;;;;;3.38;1.05;;;18.20;58.30;;;;;;5028750;28;20029;-44
2022/04/13 15:36:02;;;;;;;3.30;1.00;;;17.90;60.50;;;;;;5029512;28;20362;-41
2022/04/13 15:38:28;;;;;;;4.35;1.63;;;17.60;59.70;;;;;;5017388;28;20034;-43
2022/04/13 15:40:55;;;;;;;6.30;1.30;;;17.40;61.70;;;;;;5032716;28;20061;-44
2022/04/13 15:43:21;;;;;;;4.65;1.30;;;17.30;62.60;;;;;;5033743;28;20117;-41
2022/04/13 15:45:47;;;;;;;5.68;2.17;;;17.30;61.50;;;;;;5034436;28;20080;-43
2022/04/13 15:48:14;;;;;;;3.38;0.93;;;17.40;62.60;;;;;;5034283;28;20061;-46
2022/04/13 15:50:48;;;;;;;4.85;1.65;;;17.40;62.80;;;;;;5034420;28;20025;-43
2022/04/13 15:53:16;;;;;;;5.43;1.83;;;17.40;63.90;;;;;;5034089;28;20034;-43
2022/04/13 15:55:42;;;;;;;4.75;1.30;;;17.50;64.70;;;;;;5047186;28;20032;-47
2022/04/13 15:58:08;;;;;;;4.00;1.40;;;17.50;62.80;;;;;;5051117;28;20179;-44
2022/04/13 16:00:35;;;;;;;13.85;6.30;;;17.50;61.80;;;;;;5040678;28;20107;-51
2022/04/13 16:03:06;;;;;;;6.72;1.00;;;17.60;61.60;;;;;;5047022;28;20032;-53
2022/04/13 16:05:35;;;;;;;6.68;1.30;;;17.60;62.40;;;;;;5032590;28;20491;-53
2022/04/13 16:08:00;;;;;;;7.07;1.40;;;17.50;61.00;;;;;;5031927;28;20448;-49
2022/04/13 16:10:27;;;;;;;5.75;1.40;;;17.30;61.90;;;;;;5038371;28;20523;-53
2022/04/13 16:12:56;;;;;;;4.78;1.40;;;17.20;62.60;;;;;;5022549;28;20091;-46
2022/04/13 16:15:26;;;;;;;6.85;1.20;;;17.30;62.10;;;;;;5032978;28;20054;-51
2022/04/13 16:17:52;;;;;;;;;;;17.20;61.80;;;;;;5039624;28;20028;-47
2022/04/13 16:20:19;;;;;;;7.35;1.90;;;17.10;62.20;;;;;;5035965;28;19913;-45
2022/04/13 16:22:46;;;;;;;14.07;3.13;;;17.00;62.20;;;;;;5049881;28;20021;-48
2022/04/13 16:25:13;;;;;;;8.07;1.88;;;17.10;63.80;;;;;;5050185;28;20036;-48
2022/04/13 16:27:39;;;;;;;7.68;1.85;;;17.00;62.00;;;;;;5049489;28;20069;-44
2022/04/13 16:30:06;;;;;;;8.93;3.42;;;17.00;63.50;;;;;;5044684;28;20403;-46
2022/04/13 16:32:31;;;;;;;7.55;2.20;;;17.00;63.50;;;;;;5047432;28;20036;-44
2022/04/13 16:34:59;;;;;;;8.38;2.35;;;17.00;64.40;;;;;;5041916;28;20034;-49
2022/04/13 16:37:26;;;;;;;7.57;2.53;;;17.00;64.30;;;;;;5036080;28;20048;-50
2022/04/13 16:39:52;;;;;;;7.05;2.25;;;17.00;64.40;;;;;;5044785;28;20033;-50
2022/04/13 16:42:24;;;;;;;6.53;1.30;;;17.00;64.70;;;;;;5044556;28;20024;-43
2022/04/13 16:44:51;;;;;;;6.63;2.45;;;17.00;62.10;;;;;;5039873;28;20055;-52
2022/04/13 16:47:16;;;;;;;5.32;1.70;;;17.00;63.00;;;;;;5044520;28;20028;-46
2022/04/13 16:49:42;;;;;;;6.93;2.50;;;17.00;62.50;;;;;;5045459;28;20025;-47
2022/04/13 16:52:09;;;;;;;6.28;1.70;;;16.90;63.50;;;;;;5040781;28;20469;-54
2022/04/13 16:54:35;;;;;;;6.40;1.70;;;16.90;64.20;;;;;;5032474;28;20105;-48
2022/04/13 16:57:00;;;;;;;5.25;1.83;;;16.90;63.40;;;;;;5039591;28;20400;-42
2022/04/13 16:59:26;;;;;;;6.57;2.55;;;16.80;63.40;;;;;;5052424;28;20017;-49
2022/04/13 17:01:52;;;;;;;5.90;1.75;;;16.70;64.10;;;;;;5042767;28;20700;-47
2022/04/13 17:04:19;;;;;;;6.85;1.55;;;16.70;64.80;;;;;;5032504;28;20046;-51
2022/04/13 17:06:46;;;;;;;4.68;1.40;;;16.70;63.90;;;;;;5034902;28;20025;-45
2022/04/13 17:09:12;;;;;;;5.85;1.50;;;16.60;65.60;;;;;;5044614;28;20036;-49
2022/04/13 17:11:38;;;;;;;5.25;1.45;;;16.60;65.30;;;;;;5043408;28;20071;-47
2022/04/13 17:14:04;;;;;;;4.78;1.63;;;16.50;65.80;;;;;;5042276;28;20038;-43
2022/04/13 17:16:30;;;;;;;4.95;1.40;;;16.50;66.00;;;;;;5043781;28;20021;-46
2022/04/13 17:18:59;;;;;;;6.00;1.60;;;16.40;66.10;;;;;;5034081;28;20056;-45
2022/04/13 17:21:26;;;;;;;7.82;1.50;;;16.40;66.30;;;;;;5035973;28;20095;-47
2022/04/13 17:23:51;;;;;;;8.10;2.58;;;16.30;66.30;;;;;;5045710;28;20496;-49
2022/04/13 17:26:18;;;;;;;7.88;1.88;;;16.10;66.20;;;;;;5045943;28;20029;-48
2022/04/13 17:28:43;;;;;;;9.75;2.03;;;16.00;66.20;;;;;;5035555;28;20030;-49
2022/04/13 17:31:09;;;;;;;10.20;2.03;;;16.00;68.20;;;;;;5042875;28;20112;-42
2022/04/13 17:33:37;;;;;;;6.00;1.50;;;16.00;68.40;;;;;;5047359;28;20022;-46
2022/04/13 17:36:04;;;;;;;7.00;1.77;;;15.90;68.70;;;;;;5045549;28;20116;-48
2022/04/13 17:38:30;;;;;;;7.32;1.67;;;15.80;69.30;;;;;;5037257;28;20030;-44
2022/04/13 17:40:57;;;;;;;7.63;1.52;;;15.60;69.80;;;;;;5032474;28;20105;-48
2022/04/13 17:43:23;;;;;;;6.78;1.70;;;15.60;71.10;;;;;;5034659;28;20519;-48
2022/04/13 17:45:50;;;;;;;10.93;2.25;;;15.50;72.20;;;;;;5044515;28;20041;-46
2022/04/13 17:48:16;;;;;;;8.15;2.08;;;15.40;72.00;;;;;;5045935;28;20551;-49
2022/04/13 17:50:42;;;;;;;7.90;2.53;;;15.40;73.00;;;;;;5045895;28;20116;-48
2022/04/13 17:53:13;;;;;;;7.60;2.38;;;15.40;73.60;;;;;;5031753;28;20021;-48
2022/04/13 17:55:40;;;;;;;8.02;2.30;;;15.20;74.30;;;;;;5039798;28;20037;-47
2022/04/13 17:58:06;;;;;;;8.38;2.15;;;15.10;74.60;;;;;;5028858;28;20029;-45
2022/04/13 18:00:33;;;;;;;7.97;2.47;;;15.00;74.90;;;;;;5029277;28;20467;-45
2022/04/13 18:02:59;;;;;;;9.48;2.22;;;15.00;75.60;;;;;;5028714;28;20036;-46
2022/04/13 18:05:25;;;;;;;7.45;2.03;;;14.80;75.60;;;;;;5028806;28;20049;-52
2022/04/13 18:07:51;;;;;;;11.80;2.83;;;14.80;76.50;;;;;;5028528;28;20033;-50
2022/04/13 18:10:19;;;;;;;10.98;2.92;;;14.80;76.80;;;;;;5029931;28;20033;-45
2022/04/13 18:12:45;;;;;;;8.70;2.95;;;14.70;77.20;;;;;;5030333;28;20032;-49
2022/04/13 18:15:12;;;;;;;10.65;2.85;;;14.60;77.70;;;;;;5030081;28;20049;-52
2022/04/13 18:17:39;;;;;;;7.03;2.20;;;14.60;78.10;;;;;;5031761;28;20021;-56
2022/04/13 18:20:05;;;;;;;10.25;2.70;;;14.50;78.70;;;;;;5031459;28;20021;-47
2022/04/13 18:22:31;;;;;;;16.05;6.43;;;14.40;78.70;;;;;;5026648;28;20030;-44
2022/04/13 18:24:56;;;;;;;10.77;3.47;;;14.40;79.20;;;;;;5017184;28;20453;-48
2022/04/13 18:27:22;;;;;;;10.77;2.63;;;14.30;79.70;;;;;;5031309;28;20031;-42
2022/04/13 18:29:52;;;;;;;8.60;2.40;;;14.20;80.50;;;;;;5031454;28;20034;-47
2022/04/13 18:32:19;;;;;;;9.73;2.50;;;14.10;81.30;;;;;;5031180;28;20511;-52
2022/04/13 18:34:45;;;;;;;12.25;6.28;;;14.00;82.00;;;;;;5028713;28;20444;-43
2022/04/13 18:37:11;;;;;;;13.43;4.70;;;13.90;82.20;;;;;;5030366;28;20071;-44
2022/04/13 18:39:36;;;;;;;12.82;6.45;;;13.80;82.20;;;;;;5030460;28;20029;-51
2022/04/13 18:42:02;;;;;;;9.35;3.50;;;13.70;82.90;;;;;;5029895;28;20060;-49
2022/04/13 18:44:28;;;;;;;9.55;3.03;;;13.70;83.20;;;;;;5030398;28;20030;-47
2022/04/13 18:46:53;;;;;;;11.50;3.10;;;13.60;83.70;;;;;;5029987;28;20030;-50
2022/04/13 18:49:19;;;;;;;9.65;2.55;;;13.50;84.50;;;;;;5029101;28;20092;-51
2022/04/13 18:51:45;;;;;;;10.50;2.60;;;13.40;84.70;;;;;;5027482;28;20042;-48
2022/04/13 18:54:11;;;;;;;20.52;6.35;;;13.30;85.20;;;;;;5019849;28;20034;-52
2022/04/13 18:56:38;;;;;;;14.43;5.82;;;13.10;85.80;;;;;;5017194;28;20107;-50
2022/04/13 18:59:04;;;;;;;18.90;8.50;;;13.10;86.40;;;;;;5011824;28;20029;-49
2022/04/13 19:01:29;;;;;;;17.25;8.82;;;12.90;86.70;;;;;;5012388;28;20358;-43
2022/04/13 19:03:55;;;;;;;21.20;10.13;;;12.80;87.60;;;;;;5019624;28;20480;-45
2022/04/13 19:06:21;;;;;;;12.48;3.97;;;12.70;88.20;;;;;;5027509;28;20582;-56
2022/04/13 19:08:49;;;;;;;6.95;2.50;;;12.60;88.80;;;;;;5029513;28;20435;-45
2022/04/13 19:11:15;;;;;;;9.25;2.70;;;12.50;89.30;;;;;;5014043;28;20034;-55
2022/04/13 19:13:40;;;;;;;8.35;2.75;;;12.50;90.00;;;;;;5011151;28;20034;-49
2022/04/13 19:16:06;;;;;;;7.65;2.63;;;12.40;90.10;;;;;;5011297;28;20026;-47
2022/04/13 19:18:32;;;;;;;12.75;3.13;;;12.30;90.20;;;;;;5011315;28;20034;-44
2022/04/13 19:20:58;;;;;;;13.43;5.35;;;12.20;90.50;;;;;;5011375;28;20029;-47
2022/04/13 19:23:24;;;;;;;22.63;11.07;;;12.10;90.70;;;;;;5017785;28;20417;-46
2022/04/13 19:25:52;;;;;;;26.42;11.25;;;12.00;90.80;;;;;;5030982;28;20129;-47
2022/04/13 19:28:19;;;;;;;19.48;10.43;;;12.00;91.20;;;;;;5030839;28;20029;-49
2022/04/13 19:30:45;;;;;;;29.23;12.55;;;11.90;91.60;;;;;;5062667;28;20029;-52
2022/04/13 19:33:11;;;;;;;15.50;5.82;;;11.90;91.50;;;;;;5030995;28;20025;-48
2022/04/13 19:35:37;;;;;;;18.95;8.43;;;11.80;91.70;;;;;;5030905;28;20037;-53
2022/04/13 19:38:03;;;;;;;21.20;9.57;;;11.70;91.80;;;;;;5030928;28;20063;-53
2022/04/13 19:40:28;;;;;;;39.92;19.52;;;11.70;91.90;;;;;;5030952;28;20030;-49
2022/04/13 19:42:54;;;;;;;36.95;17.17;;;11.60;92.20;;;;;;5030559;28;20408;-55
2022/04/13 19:45:21;;;;;;;24.02;13.63;;;11.50;92.40;;;;;;5029962;28;20048;-49
2022/04/13 19:47:47;;;;;;;27.33;14.38;;;11.50;92.50;;;;;;5024570;28;20025;-54
2022/04/13 19:50:14;;;;;;;31.38;14.27;;;11.50;92.60;;;;;;5018189;28;20036;-57
2022/04/13 19:52:40;;;;;;;27.90;12.73;;;11.40;92.80;;;;;;5011277;28;20025;-44
2022/04/13 19:55:07;;;;;;;20.50;8.18;;;11.40;92.90;;;;;;5011001;28;20026;-50
2022/04/13 19:57:33;;;;;;;11.48;5.10;;;11.40;92.80;;;;;;5011055;28;20026;-52
2022/04/13 19:59:59;;;;;;;11.18;3.78;;;11.40;92.90;;;;;;5011027;28;20037;-50
2022/04/13 20:02:24;;;;;;;9.57;3.85;;;11.40;93.00;;;;;;5014486;28;20017;-55